sensor_id;sensor_type;location;lat;lon;timestamp;pressure;altitude;pressure_sealevel;temperature;humidity
5952;BME280;3001;42.622;23.194;2023-04-28T00:01:14;91474.72;;;6.94;64.79
5952;BME280;3001;42.622;23.194;2023-04-28T00:03:40;91476.88;;;6.87;65.93
5952;BME280;3001;42.622;23.194;2023-04-28T00:06:09;91470.03;;;6.73;63.71
5952;BME280;3001;42.622;23.194;2023-04-28T00:08:36;91470.13;;;6.63;64.11
5952;BME280;3001;42.622;23.194;2023-04-28T00:11:08;91465.00;;;6.58;66.87
5952;BME280;3001;42.622;23.194;2023-04-28T00:13:35;91469.22;;;6.49;65.28
5952;BME280;3001;42.622;23.194;2023-04-28T00:16:01;91465.13;;;6.48;67.46
5952;BME280;3001;42.622;23.194;2023-04-28T00:18:28;91470.03;;;6.44;65.49
5952;BME280;3001;42.622;23.194;2023-04-28T00:20:55;91450.34;;;6.25;66.15
5952;BME280;3001;42.622;23.194;2023-04-28T00:23:23;91468.00;;;6.41;65.73
5952;BME280;3001;42.622;23.194;2023-04-28T00:25:50;91471.56;;;6.45;65.55
5952;BME280;3001;42.622;23.194;2023-04-28T00:28:17;91466.97;;;6.42;67.31
5952;BME280;3001;42.622;23.194;2023-04-28T00:30:44;91465.91;;;6.43;67.62
5952;BME280;3001;42.622;23.194;2023-04-28T00:33:11;91464.69;;;6.36;67.89
5952;BME280;3001;42.622;23.194;2023-04-28T00:35:38;91465.97;;;6.38;67.71
5952;BME280;3001;42.622;23.194;2023-04-28T00:38:04;91468.00;;;6.41;68.27
5952;BME280;3001;42.622;23.194;2023-04-28T00:40:33;91471.06;;;6.43;68.09
5952;BME280;3001;42.622;23.194;2023-04-28T00:43:00;91470.09;;;6.39;68.55
5952;BME280;3001;42.622;23.194;2023-04-28T00:45:26;91475.44;;;6.43;69.33
5952;BME280;3001;42.622;23.194;2023-04-28T00:47:54;91469.28;;;6.39;69.10
5952;BME280;3001;42.622;23.194;2023-04-28T00:50:21;91476.03;;;6.35;68.64
5952;BME280;3001;42.622;23.194;2023-04-28T00:52:48;91476.28;;;6.38;69.55
5952;BME280;3001;42.622;23.194;2023-04-28T00:55:15;91483.88;;;6.25;67.31
5952;BME280;3001;42.622;23.194;2023-04-28T00:57:44;91475.59;;;6.28;68.31
5952;BME280;3001;42.622;23.194;2023-04-28T01:00:11;91461.50;;;6.15;69.61
5952;BME280;3001;42.622;23.194;2023-04-28T01:02:38;91479.22;;;6.22;70.38
5952;BME280;3001;42.622;23.194;2023-04-28T01:05:05;91481.31;;;6.20;71.00
5952;BME280;3001;42.622;23.194;2023-04-28T01:07:33;91470.25;;;6.19;69.82
5952;BME280;3001;42.622;23.194;2023-04-28T01:10:00;91480.06;;;6.17;71.35
5952;BME280;3001;42.622;23.194;2023-04-28T01:12:26;91479.00;;;6.18;71.94
5952;BME280;3001;42.622;23.194;2023-04-28T01:14:55;91485.31;;;6.02;70.74
5952;BME280;3001;42.622;23.194;2023-04-28T01:17:22;91485.06;;;6.04;70.36
5952;BME280;3001;42.622;23.194;2023-04-28T01:19:49;91484.72;;;6.15;69.82
5952;BME280;3001;42.622;23.194;2023-04-28T01:22:17;91483.94;;;6.15;70.12
5952;BME280;3001;42.622;23.194;2023-04-28T01:24:45;91485.22;;;6.12;70.59
5952;BME280;3001;42.622;23.194;2023-04-28T01:27:12;91486.22;;;6.21;71.53
5952;BME280;3001;42.622;23.194;2023-04-28T01:29:38;91487.50;;;6.19;72.00
5952;BME280;3001;42.622;23.194;2023-04-28T01:32:05;91487.50;;;6.19;72.79
5952;BME280;3001;42.622;23.194;2023-04-28T01:34:31;91478.53;;;6.16;73.64
5952;BME280;3001;42.622;23.194;2023-04-28T01:36:58;91480.06;;;6.17;73.77
5952;BME280;3001;42.622;23.194;2023-04-28T01:39:25;91486.25;;;6.16;71.46
5952;BME280;3001;42.622;23.194;2023-04-28T01:41:53;91480.59;;;6.14;72.46
5952;BME280;3001;42.622;23.194;2023-04-28T01:44:20;91488.63;;;6.08;72.18
5952;BME280;3001;42.622;23.194;2023-04-28T01:46:46;91485.97;;;6.18;73.98
5952;BME280;3001;42.622;23.194;2023-04-28T01:49:13;91486.25;;;6.11;74.60
5952;BME280;3001;42.622;23.194;2023-04-28T01:51:40;91482.66;;;6.12;74.49
5952;BME280;3001;42.622;23.194;2023-04-28T01:54:07;91493.91;;;6.26;71.50
5952;BME280;3001;42.622;23.194;2023-04-28T01:56:33;91486.91;;;6.32;72.83
5952;BME280;3001;42.622;23.194;2023-04-28T01:59:01;91492.56;;;6.34;71.74
5952;BME280;3001;42.622;23.194;2023-04-28T02:01:28;91491.38;;;6.21;72.88
5952;BME280;3001;42.622;23.194;2023-04-28T02:03:55;91494.50;;;6.18;70.55
5952;BME280;3001;42.622;23.194;2023-04-28T02:06:21;91495.69;;;6.31;72.22
5952;BME280;3001;42.622;23.194;2023-04-28T02:08:48;91489.72;;;6.35;71.05
5952;BME280;3001;42.622;23.194;2023-04-28T02:11:15;91501.88;;;6.30;71.17
5952;BME280;3001;42.622;23.194;2023-04-28T02:13:41;91491.81;;;6.28;71.07
5952;BME280;3001;42.622;23.194;2023-04-28T02:16:09;91499.59;;;6.23;70.76
5952;BME280;3001;42.622;23.194;2023-04-28T02:18:36;91491.31;;;6.26;71.79
5952;BME280;3001;42.622;23.194;2023-04-28T02:21:09;91496.78;;;6.20;72.32
5952;BME280;3001;42.622;23.194;2023-04-28T02:23:36;91499.69;;;6.13;71.20
5952;BME280;3001;42.622;23.194;2023-04-28T02:26:03;91501.78;;;6.06;72.23
5952;BME280;3001;42.622;23.194;2023-04-28T02:28:30;91507.50;;;5.98;72.67
5952;BME280;3001;42.622;23.194;2023-04-28T02:31:03;91510.19;;;5.78;73.83
5952;BME280;3001;42.622;23.194;2023-04-28T02:33:31;91508.16;;;5.65;74.14
5952;BME280;3001;42.622;23.194;2023-04-28T02:35:58;91512.50;;;5.75;72.99
5952;BME280;3001;42.622;23.194;2023-04-28T02:38:25;91514.59;;;5.68;72.03
5952;BME280;3001;42.622;23.194;2023-04-28T02:40:56;91516.69;;;5.66;71.14
5952;BME280;3001;42.622;23.194;2023-04-28T02:43:24;91523.84;;;5.84;71.75
5952;BME280;3001;42.622;23.194;2023-04-28T02:45:50;91520.72;;;5.82;70.01
5952;BME280;3001;42.622;23.194;2023-04-28T02:48:17;91524.06;;;5.87;72.24
5952;BME280;3001;42.622;23.194;2023-04-28T02:50:45;91518.38;;;5.90;72.93
5952;BME280;3001;42.622;23.194;2023-04-28T02:53:12;91492.16;;;5.68;73.20
5952;BME280;3001;42.622;23.194;2023-04-28T02:55:39;91521.97;;;5.89;73.16
5952;BME280;3001;42.622;23.194;2023-04-28T02:58:05;91528.44;;;5.92;73.64
5952;BME280;3001;42.622;23.194;2023-04-28T03:00:32;91535.63;;;5.95;73.70
5952;BME280;3001;42.622;23.194;2023-04-28T03:02:59;91538.47;;;5.93;74.33
5952;BME280;3001;42.622;23.194;2023-04-28T03:05:26;91539.19;;;5.99;73.39
5952;BME280;3001;42.622;23.194;2023-04-28T03:07:54;91533.00;;;6.00;70.87
5952;BME280;3001;42.622;23.194;2023-04-28T03:10:21;91535.84;;;6.03;71.46
5952;BME280;3001;42.622;23.194;2023-04-28T03:12:47;91533.53;;;5.97;71.51
5952;BME280;3001;42.622;23.194;2023-04-28T03:15:14;91543.81;;;6.02;72.21
5952;BME280;3001;42.622;23.194;2023-04-28T03:17:42;91546.19;;;5.98;71.04
5952;BME280;3001;42.622;23.194;2023-04-28T03:20:10;91542.00;;;6.07;69.09
5952;BME280;3001;42.622;23.194;2023-04-28T03:22:37;91541.75;;;6.09;70.09
5952;BME280;3001;42.622;23.194;2023-04-28T03:25:05;91549.72;;;6.07;70.68
5952;BME280;3001;42.622;23.194;2023-04-28T03:27:32;91559.28;;;6.07;69.78
5952;BME280;3001;42.622;23.194;2023-04-28T03:29:59;91567.03;;;6.02;70.68
5952;BME280;3001;42.622;23.194;2023-04-28T03:32:25;91567.81;;;6.02;70.57
5952;BME280;3001;42.622;23.194;2023-04-28T03:34:52;91574.75;;;6.02;69.00
5952;BME280;3001;42.622;23.194;2023-04-28T03:37:19;91578.09;;;6.07;70.40
5952;BME280;3001;42.622;23.194;2023-04-28T03:39:46;91574.97;;;6.15;68.62
5952;BME280;3001;42.622;23.194;2023-04-28T03:42:14;91580.66;;;6.07;68.09
5952;BME280;3001;42.622;23.194;2023-04-28T03:44:40;91577.34;;;6.02;67.17
5952;BME280;3001;42.622;23.194;2023-04-28T03:47:07;91589.72;;;6.05;67.39
5952;BME280;3001;42.622;23.194;2023-04-28T03:49:34;91590.03;;;5.93;68.54
5952;BME280;3001;42.622;23.194;2023-04-28T03:52:00;91597.22;;;6.01;67.83
5952;BME280;3001;42.622;23.194;2023-04-28T03:54:28;91599.72;;;6.16;68.05
5952;BME280;3001;42.622;23.194;2023-04-28T03:56:55;91601.56;;;6.11;66.73
5952;BME280;3001;42.622;23.194;2023-04-28T03:59:23;91604.66;;;6.08;67.33
5952;BME280;3001;42.622;23.194;2023-04-28T04:01:51;91593.81;;;6.11;67.89
5952;BME280;3001;42.622;23.194;2023-04-28T04:04:17;91601.28;;;6.12;65.12
5952;BME280;3001;42.622;23.194;2023-04-28T04:06:44;91599.53;;;5.98;63.89
5952;BME280;3001;42.622;23.194;2023-04-28T04:09:11;91603.91;;;6.02;67.53
5952;BME280;3001;42.622;23.194;2023-04-28T04:11:37;91604.91;;;6.06;68.19
5952;BME280;3001;42.622;23.194;2023-04-28T04:14:04;91606.97;;;6.14;69.43
5952;BME280;3001;42.622;23.194;2023-04-28T04:16:33;91606.13;;;6.24;67.32
5952;BME280;3001;42.622;23.194;2023-04-28T04:19:00;91609.97;;;6.26;65.06
5952;BME280;3001;42.622;23.194;2023-04-28T04:21:27;91605.34;;;6.23;68.14
5952;BME280;3001;42.622;23.194;2023-04-28T04:23:54;91603.03;;;6.27;71.76
5952;BME280;3001;42.622;23.194;2023-04-28T04:26:21;91618.00;;;6.25;69.90
5952;BME280;3001;42.622;23.194;2023-04-28T04:28:48;91613.25;;;5.93;70.76
5952;BME280;3001;42.622;23.194;2023-04-28T04:31:14;91617.66;;;5.88;71.76
5952;BME280;3001;42.622;23.194;2023-04-28T04:33:43;91616.88;;;5.82;71.30
5952;BME280;3001;42.622;23.194;2023-04-28T04:36:10;91614.78;;;5.89;70.85
5952;BME280;3001;42.622;23.194;2023-04-28T04:38:37;91615.53;;;5.95;72.87
5952;BME280;3001;42.622;23.194;2023-04-28T04:41:04;91615.75;;;6.03;72.67
5952;BME280;3001;42.622;23.194;2023-04-28T04:43:31;91621.19;;;6.07;71.15
5952;BME280;3001;42.622;23.194;2023-04-28T04:45:58;91624.19;;;6.19;70.38
5952;BME280;3001;42.622;23.194;2023-04-28T04:48:25;91625.47;;;6.21;70.58
5952;BME280;3001;42.622;23.194;2023-04-28T04:50:53;91629.78;;;6.36;69.34
5952;BME280;3001;42.622;23.194;2023-04-28T04:53:19;91640.44;;;6.24;64.32
5952;BME280;3001;42.622;23.194;2023-04-28T04:55:46;91642.44;;;6.32;62.64
5952;BME280;3001;42.622;23.194;2023-04-28T04:58:13;91639.84;;;6.32;62.30
5952;BME280;3001;42.622;23.194;2023-04-28T05:00:39;91643.66;;;6.50;61.99
5952;BME280;3001;42.622;23.194;2023-04-28T05:03:06;91642.25;;;6.67;61.71
5952;BME280;3001;42.622;23.194;2023-04-28T05:05:33;91646.03;;;6.79;62.56
5952;BME280;3001;42.622;23.194;2023-04-28T05:08:01;91639.81;;;6.85;61.77
5952;BME280;3001;42.622;23.194;2023-04-28T05:10:30;91640.69;;;7.04;60.80
5952;BME280;3001;42.622;23.194;2023-04-28T05:12:57;91643.50;;;7.08;65.00
5952;BME280;3001;42.622;23.194;2023-04-28T05:15:23;91645.72;;;7.19;63.13
5952;BME280;3001;42.622;23.194;2023-04-28T05:17:50;91648.44;;;7.33;64.57
5952;BME280;3001;42.622;23.194;2023-04-28T05:20:17;91650.53;;;7.31;60.75
5952;BME280;3001;42.622;23.194;2023-04-28T05:22:43;91646.41;;;7.30;61.12
5952;BME280;3001;42.622;23.194;2023-04-28T05:25:11;91642.91;;;7.49;61.09
5952;BME280;3001;42.622;23.194;2023-04-28T05:27:38;91644.16;;;7.52;59.82
5952;BME280;3001;42.622;23.194;2023-04-28T05:30:06;91648.78;;;7.55;57.18
5952;BME280;3001;42.622;23.194;2023-04-28T05:32:33;91649.41;;;7.70;58.48
5952;BME280;3001;42.622;23.194;2023-04-28T05:35:00;91643.13;;;7.76;58.72
5952;BME280;3001;42.622;23.194;2023-04-28T05:37:27;91651.56;;;7.87;60.04
5952;BME280;3001;42.622;23.194;2023-04-28T05:39:54;91646.28;;;7.97;58.17
5952;BME280;3001;42.622;23.194;2023-04-28T05:42:22;91639.47;;;8.06;59.33
5952;BME280;3001;42.622;23.194;2023-04-28T05:44:49;91644.00;;;8.14;59.12
5952;BME280;3001;42.622;23.194;2023-04-28T05:47:15;91642.47;;;8.36;59.01
5952;BME280;3001;42.622;23.194;2023-04-28T05:49:42;91639.75;;;8.46;58.52
5952;BME280;3001;42.622;23.194;2023-04-28T05:52:08;91654.84;;;8.62;58.98
5952;BME280;3001;42.622;23.194;2023-04-28T05:54:35;91645.03;;;8.78;58.98
5952;BME280;3001;42.622;23.194;2023-04-28T05:57:02;91652.94;;;8.86;56.00
5952;BME280;3001;42.622;23.194;2023-04-28T05:59:30;91650.75;;;8.93;56.69
5952;BME280;3001;42.622;23.194;2023-04-28T06:01:57;91650.69;;;8.98;55.37
5952;BME280;3001;42.622;23.194;2023-04-28T06:04:24;91653.06;;;9.13;55.53
5952;BME280;3001;42.622;23.194;2023-04-28T06:06:51;91648.69;;;9.27;55.99
5952;BME280;3001;42.622;23.194;2023-04-28T06:09:17;91655.53;;;9.37;55.77
5952;BME280;3001;42.622;23.194;2023-04-28T06:11:44;91653.84;;;9.46;52.93
5952;BME280;3001;42.622;23.194;2023-04-28T06:14:11;91646.38;;;9.58;52.58
5952;BME280;3001;42.622;23.194;2023-04-28T06:16:39;91646.00;;;9.64;54.17
5952;BME280;3001;42.622;23.194;2023-04-28T06:19:05;91649.78;;;9.72;54.85
5952;BME280;3001;42.622;23.194;2023-04-28T06:21:32;91646.25;;;9.81;52.17
5952;BME280;3001;42.622;23.194;2023-04-28T06:23:59;91651.72;;;9.93;52.72
5952;BME280;3001;42.622;23.194;2023-04-28T06:26:26;91649.16;;;10.07;47.53
5952;BME280;3001;42.622;23.194;2023-04-28T06:28:53;91655.72;;;10.18;49.42
5952;BME280;3001;42.622;23.194;2023-04-28T06:31:20;91657.50;;;10.30;48.15
5952;BME280;3001;42.622;23.194;2023-04-28T06:33:48;91664.34;;;10.40;49.55
5952;BME280;3001;42.622;23.194;2023-04-28T06:36:14;91657.91;;;10.37;48.84
5952;BME280;3001;42.622;23.194;2023-04-28T06:38:42;91651.75;;;10.47;46.79
5952;BME280;3001;42.622;23.194;2023-04-28T06:41:09;91645.19;;;10.49;49.48
5952;BME280;3001;42.622;23.194;2023-04-28T06:43:36;91657.59;;;10.66;47.97
5952;BME280;3001;42.622;23.194;2023-04-28T06:46:02;91657.22;;;10.59;44.51
5952;BME280;3001;42.622;23.194;2023-04-28T06:48:29;91657.78;;;10.69;46.47
5952;BME280;3001;42.622;23.194;2023-04-28T06:50:57;91659.56;;;10.96;47.16
5952;BME280;3001;42.622;23.194;2023-04-28T06:53:24;91654.72;;;11.03;45.48
5952;BME280;3001;42.622;23.194;2023-04-28T06:55:51;91657.69;;;11.10;46.13
5952;BME280;3001;42.622;23.194;2023-04-28T06:58:18;91645.34;;;11.15;47.41
5952;BME280;3001;42.622;23.194;2023-04-28T07:00:45;91656.03;;;11.36;47.08
5952;BME280;3001;42.622;23.194;2023-04-28T07:03:12;91655.03;;;11.45;46.50
5952;BME280;3001;42.622;23.194;2023-04-28T07:05:38;91656.91;;;11.53;48.68
5952;BME280;3001;42.622;23.194;2023-04-28T07:08:06;91662.06;;;11.58;47.44
5952;BME280;3001;42.622;23.194;2023-04-28T07:10:33;91660.25;;;11.67;45.59
5952;BME280;3001;42.622;23.194;2023-04-28T07:13:00;91651.25;;;11.73;44.87
5952;BME280;3001;42.622;23.194;2023-04-28T07:15:27;91661.00;;;11.90;46.53
5952;BME280;3001;42.622;23.194;2023-04-28T07:17:54;91654.66;;;12.04;45.17
5952;BME280;3001;42.622;23.194;2023-04-28T07:20:20;91653.31;;;12.15;45.19
5952;BME280;3001;42.622;23.194;2023-04-28T07:22:47;91649.25;;;12.39;44.42
5952;BME280;3001;42.622;23.194;2023-04-28T07:25:15;91655.72;;;12.42;45.15
5952;BME280;3001;42.622;23.194;2023-04-28T07:27:42;91659.84;;;12.43;41.36
5952;BME280;3001;42.622;23.194;2023-04-28T07:30:09;91657.22;;;12.34;40.31
5952;BME280;3001;42.622;23.194;2023-04-28T07:32:35;91646.50;;;12.36;41.64
5952;BME280;3001;42.622;23.194;2023-04-28T07:35:02;91652.66;;;12.40;42.20
5952;BME280;3001;42.622;23.194;2023-04-28T07:37:29;91648.19;;;12.40;40.49
5952;BME280;3001;42.622;23.194;2023-04-28T07:39:56;91645.94;;;12.47;44.51
5952;BME280;3001;42.622;23.194;2023-04-28T07:42:24;91648.09;;;12.62;45.83
5952;BME280;3001;42.622;23.194;2023-04-28T07:44:51;91646.59;;;12.78;44.10
5952;BME280;3001;42.622;23.194;2023-04-28T07:47:18;91640.78;;;12.90;42.10
5952;BME280;3001;42.622;23.194;2023-04-28T07:49:45;91643.91;;;13.00;42.87
5952;BME280;3001;42.622;23.194;2023-04-28T07:52:11;91638.69;;;13.17;43.15
5952;BME280;3001;42.622;23.194;2023-04-28T07:54:38;91640.41;;;13.30;42.20
5952;BME280;3001;42.622;23.194;2023-04-28T07:57:04;91642.84;;;13.44;40.75
5952;BME280;3001;42.622;23.194;2023-04-28T07:59:33;91640.06;;;13.66;42.65
5952;BME280;3001;42.622;23.194;2023-04-28T08:02:00;91642.16;;;13.89;42.69
5952;BME280;3001;42.622;23.194;2023-04-28T08:04:26;91645.97;;;14.46;41.03
5952;BME280;3001;42.622;23.194;2023-04-28T08:06:55;91642.50;;;14.33;42.04
5952;BME280;3001;42.622;23.194;2023-04-28T08:09:22;91648.72;;;14.49;38.99
5952;BME280;3001;42.622;23.194;2023-04-28T08:11:49;91649.75;;;14.65;39.77
5952;BME280;3001;42.622;23.194;2023-04-28T08:14:15;91655.63;;;14.83;38.95
5952;BME280;3001;42.622;23.194;2023-04-28T08:16:43;91651.44;;;14.90;38.64
5952;BME280;3001;42.622;23.194;2023-04-28T08:19:11;91650.75;;;15.02;38.56
5952;BME280;3001;42.622;23.194;2023-04-28T08:21:38;91646.84;;;15.08;38.91
5952;BME280;3001;42.622;23.194;2023-04-28T08:24:05;91649.81;;;15.27;39.35
5952;BME280;3001;42.622;23.194;2023-04-28T08:26:32;91646.38;;;15.75;37.55
5952;BME280;3001;42.622;23.194;2023-04-28T08:28:59;91646.81;;;15.77;35.41
5952;BME280;3001;42.622;23.194;2023-04-28T08:31:25;91647.69;;;15.81;37.00
5952;BME280;3001;42.622;23.194;2023-04-28T08:33:53;91644.78;;;15.95;36.89
5952;BME280;3001;42.622;23.194;2023-04-28T08:36:20;91641.16;;;15.87;37.57
5952;BME280;3001;42.622;23.194;2023-04-28T08:38:47;91640.75;;;15.97;36.95
5952;BME280;3001;42.622;23.194;2023-04-28T08:41:15;91640.34;;;16.07;38.55
5952;BME280;3001;42.622;23.194;2023-04-28T08:43:42;91640.81;;;16.21;37.30
5952;BME280;3001;42.622;23.194;2023-04-28T08:46:10;91642.19;;;16.39;35.94
5952;BME280;3001;42.622;23.194;2023-04-28T08:48:39;91641.41;;;16.51;36.36
5952;BME280;3001;42.622;23.194;2023-04-28T08:51:08;91640.31;;;16.64;34.68
5952;BME280;3001;42.622;23.194;2023-04-28T08:53:37;91636.50;;;16.73;37.16
5952;BME280;3001;42.622;23.194;2023-04-28T08:56:05;91642.63;;;16.77;35.72
5952;BME280;3001;42.622;23.194;2023-04-28T08:58:34;91636.81;;;16.96;36.56
5952;BME280;3001;42.622;23.194;2023-04-28T09:01:02;91635.72;;;16.97;35.30
5952;BME280;3001;42.622;23.194;2023-04-28T09:03:29;91634.94;;;17.08;33.10
5952;BME280;3001;42.622;23.194;2023-04-28T09:05:57;91646.78;;;17.02;34.67
5952;BME280;3001;42.622;23.194;2023-04-28T09:08:25;91642.72;;;16.93;32.23
5952;BME280;3001;42.622;23.194;2023-04-28T09:11:06;91631.59;;;16.72;34.07
5952;BME280;3001;42.622;23.194;2023-04-28T09:13:33;91627.84;;;16.85;33.07
5952;BME280;3001;42.622;23.194;2023-04-28T09:16:01;91632.91;;;16.66;33.83
5952;BME280;3001;42.622;23.194;2023-04-28T09:18:29;91624.03;;;16.46;36.36
5952;BME280;3001;42.622;23.194;2023-04-28T09:21:05;91638.25;;;16.57;33.78
5952;BME280;3001;42.622;23.194;2023-04-28T09:23:35;91611.91;;;16.42;32.33
5952;BME280;3001;42.622;23.194;2023-04-28T09:26:11;91631.06;;;16.54;35.20
5952;BME280;3001;42.622;23.194;2023-04-28T09:28:38;91625.59;;;16.59;33.38
5952;BME280;3001;42.622;23.194;2023-04-28T09:31:05;91604.38;;;16.52;33.60
5952;BME280;3001;42.622;23.194;2023-04-28T09:33:31;91613.56;;;16.82;34.47
5952;BME280;3001;42.622;23.194;2023-04-28T09:35:58;91612.78;;;16.94;33.58
5952;BME280;3001;42.622;23.194;2023-04-28T09:38:25;91612.28;;;17.16;35.38
5952;BME280;3001;42.622;23.194;2023-04-28T09:40:55;91618.97;;;17.37;32.14
5952;BME280;3001;42.622;23.194;2023-04-28T09:43:27;91607.69;;;17.64;35.98
5952;BME280;3001;42.622;23.194;2023-04-28T09:45:55;91607.31;;;17.77;32.93
5952;BME280;3001;42.622;23.194;2023-04-28T09:48:31;91603.38;;;17.99;34.10
5952;BME280;3001;42.622;23.194;2023-04-28T09:50:58;91604.56;;;18.17;34.11
5952;BME280;3001;42.622;23.194;2023-04-28T09:53:26;91607.16;;;18.29;30.82
5952;BME280;3001;42.622;23.194;2023-04-28T09:55:56;91600.88;;;18.33;33.94
5952;BME280;3001;42.622;23.194;2023-04-28T09:58:24;91604.53;;;18.44;33.48
5952;BME280;3001;42.622;23.194;2023-04-28T10:00:52;91603.66;;;18.56;33.89
5952;BME280;3001;42.622;23.194;2023-04-28T10:03:22;91606.16;;;18.49;31.50
5952;BME280;3001;42.622;23.194;2023-04-28T10:05:50;91598.25;;;18.49;30.32
5952;BME280;3001;42.622;23.194;2023-04-28T10:08:18;91596.47;;;18.53;31.82
5952;BME280;3001;42.622;23.194;2023-04-28T10:10:46;91591.53;;;18.36;32.38
5952;BME280;3001;42.622;23.194;2023-04-28T10:13:15;91595.34;;;18.54;33.05
5952;BME280;3001;42.622;23.194;2023-04-28T10:15:43;91602.41;;;18.65;31.72
5952;BME280;3001;42.622;23.194;2023-04-28T10:18:10;91593.75;;;18.65;30.48
5952;BME280;3001;42.622;23.194;2023-04-28T10:20:38;91582.53;;;18.68;33.82
5952;BME280;3001;42.622;23.194;2023-04-28T10:23:20;91585.41;;;18.78;30.92
5952;BME280;3001;42.622;23.194;2023-04-28T10:25:54;91590.34;;;18.64;28.56
5952;BME280;3001;42.622;23.194;2023-04-28T10:28:24;91588.50;;;18.65;31.33
5952;BME280;3001;42.622;23.194;2023-04-28T10:31:10;91584.69;;;18.47;31.64
5952;BME280;3001;42.622;23.194;2023-04-28T10:33:37;91579.97;;;18.25;29.36
5952;BME280;3001;42.622;23.194;2023-04-28T10:36:05;91579.97;;;18.25;31.39
5952;BME280;3001;42.622;23.194;2023-04-28T10:38:33;91581.28;;;18.46;30.25
5952;BME280;3001;42.622;23.194;2023-04-28T10:41:00;91561.34;;;18.61;33.62
5952;BME280;3001;42.622;23.194;2023-04-28T10:43:38;91556.38;;;18.75;30.46
5952;BME280;3001;42.622;23.194;2023-04-28T10:46:06;91544.56;;;18.84;31.89
5952;BME280;3001;42.622;23.194;2023-04-28T10:48:55;91554.44;;;19.22;35.00
5952;BME280;3001;42.622;23.194;2023-04-28T10:51:28;91554.97;;;19.49;32.20
5952;BME280;3001;42.622;23.194;2023-04-28T10:54:15;91557.31;;;19.73;32.02
5952;BME280;3001;42.622;23.194;2023-04-28T10:57:18;91554.53;;;19.85;28.48
5952;BME280;3001;42.622;23.194;2023-04-28T10:59:47;91548.06;;;20.02;30.62
5952;BME280;3001;42.622;23.194;2023-04-28T11:02:39;91544.22;;;19.99;30.71
5952;BME280;3001;42.622;23.194;2023-04-28T11:05:10;91544.88;;;20.12;29.78
5952;BME280;3001;42.622;23.194;2023-04-28T11:07:37;91543.28;;;20.07;27.64
5952;BME280;3001;42.622;23.194;2023-04-28T11:10:04;91551.78;;;20.20;28.97
5952;BME280;3001;42.622;23.194;2023-04-28T11:12:31;91536.47;;;20.29;29.83
5952;BME280;3001;42.622;23.194;2023-04-28T11:15:10;91542.09;;;20.27;28.65
5952;BME280;3001;42.622;23.194;2023-04-28T11:17:39;91537.41;;;20.17;27.78
5952;BME280;3001;42.622;23.194;2023-04-28T11:20:07;91528.22;;;20.30;28.74
5952;BME280;3001;42.622;23.194;2023-04-28T11:22:38;91541.16;;;20.39;28.45
5952;BME280;3001;42.622;23.194;2023-04-28T11:25:06;91521.34;;;20.48;29.83
5952;BME280;3001;42.622;23.194;2023-04-28T11:27:33;91529.44;;;20.62;26.90
5952;BME280;3001;42.622;23.194;2023-04-28T11:30:01;91520.28;;;20.79;28.97
5952;BME280;3001;42.622;23.194;2023-04-28T11:32:31;91522.53;;;21.03;27.67
5952;BME280;3001;42.622;23.194;2023-04-28T11:34:58;91515.22;;;21.22;30.45
5952;BME280;3001;42.622;23.194;2023-04-28T11:37:24;91520.09;;;21.49;28.76
5952;BME280;3001;42.622;23.194;2023-04-28T11:39:51;91507.09;;;21.67;30.51
5952;BME280;3001;42.622;23.194;2023-04-28T11:42:18;91510.22;;;21.76;29.17
5952;BME280;3001;42.622;23.194;2023-04-28T11:44:49;91513.84;;;21.97;28.97
5952;BME280;3001;42.622;23.194;2023-04-28T11:47:27;91521.31;;;22.28;29.90
5952;BME280;3001;42.622;23.194;2023-04-28T11:49:54;91519.44;;;22.32;26.37
5952;BME280;3001;42.622;23.194;2023-04-28T11:52:20;91524.84;;;22.39;26.01
5952;BME280;3001;42.622;23.194;2023-04-28T11:54:52;91525.59;;;22.40;26.46
5952;BME280;3001;42.622;23.194;2023-04-28T11:57:20;91511.50;;;22.32;25.69
5952;BME280;3001;42.622;23.194;2023-04-28T11:59:47;91509.97;;;22.31;27.53
5952;BME280;3001;42.622;23.194;2023-04-28T12:02:14;91516.91;;;22.43;26.28
5952;BME280;3001;42.622;23.194;2023-04-28T12:04:43;91509.47;;;22.59;25.68
5952;BME280;3001;42.622;23.194;2023-04-28T12:07:11;91511.88;;;22.78;27.89
5952;BME280;3001;42.622;23.194;2023-04-28T12:09:39;91518.38;;;22.87;26.01
5952;BME280;3001;42.622;23.194;2023-04-28T12:12:08;91517.66;;;22.97;26.71
5952;BME280;3001;42.622;23.194;2023-04-28T12:14:54;91507.97;;;23.15;26.76
5952;BME280;3001;42.622;23.194;2023-04-28T12:17:25;91508.00;;;23.25;26.53
5952;BME280;3001;42.622;23.194;2023-04-28T12:19:53;91500.59;;;23.55;25.87
5952;BME280;3001;42.622;23.194;2023-04-28T12:22:20;91503.91;;;23.38;24.05
5952;BME280;3001;42.622;23.194;2023-04-28T12:25:01;91505.06;;;23.41;24.92
5952;BME280;3001;42.622;23.194;2023-04-28T12:27:28;91502.84;;;23.50;24.32
5952;BME280;3001;42.622;23.194;2023-04-28T12:29:56;91492.16;;;23.32;25.57
5952;BME280;3001;42.622;23.194;2023-04-28T12:32:37;91499.09;;;23.61;25.71
5952;BME280;3001;42.622;23.194;2023-04-28T12:35:06;91496.44;;;23.68;25.23
5952;BME280;3001;42.622;23.194;2023-04-28T12:37:33;91501.41;;;23.80;24.96
5952;BME280;3001;42.622;23.194;2023-04-28T12:40:00;91501.09;;;23.89;22.67
5952;BME280;3001;42.622;23.194;2023-04-28T12:42:29;91494.66;;;23.90;24.39
5952;BME280;3001;42.622;23.194;2023-04-28T12:44:55;91491.25;;;23.96;23.50
5952;BME280;3001;42.622;23.194;2023-04-28T12:47:23;91496.09;;;23.80;23.07
5952;BME280;3001;42.622;23.194;2023-04-28T12:49:49;91494.25;;;23.88;23.19
5952;BME280;3001;42.622;23.194;2023-04-28T12:52:19;91469.25;;;23.82;24.78
5952;BME280;3001;42.622;23.194;2023-04-28T12:54:46;91485.19;;;24.03;24.63
5952;BME280;3001;42.622;23.194;2023-04-28T12:57:13;91490.50;;;24.17;24.17
5952;BME280;3001;42.622;23.194;2023-04-28T12:59:41;91481.81;;;24.34;23.70
5952;BME280;3001;42.622;23.194;2023-04-28T13:02:08;91483.31;;;24.45;23.98
5952;BME280;3001;42.622;23.194;2023-04-28T13:04:35;91487.50;;;24.50;23.00
5952;BME280;3001;42.622;23.194;2023-04-28T13:07:01;91477.28;;;24.45;24.85
5952;BME280;3001;42.622;23.194;2023-04-28T13:09:29;91477.25;;;24.48;23.80
5952;BME280;3001;42.622;23.194;2023-04-28T13:11:56;91478.38;;;24.47;24.58
5952;BME280;3001;42.622;23.194;2023-04-28T13:14:24;91474.97;;;24.50;23.20
5952;BME280;3001;42.622;23.194;2023-04-28T13:16:52;91479.19;;;24.41;22.85
5952;BME280;3001;42.622;23.194;2023-04-28T13:19:19;91478.03;;;24.21;22.06
5952;BME280;3001;42.622;23.194;2023-04-28T13:21:45;91486.75;;;24.35;22.33